sensor_id;sensor_type;location;lat;lon;timestamp;P1;durP1;ratioP1;P2;durP2;ratioP2
16171;SDS011;8192;53.596;10.166;2023-06-22T00:00:14;18.42;;;17.23;;
16171;SDS011;8192;53.596;10.166;2023-06-22T00:02:41;18.75;;;17.42;;
16171;SDS011;8192;53.596;10.166;2023-06-22T00:05:08;18.40;;;17.17;;
16171;SDS011;8192;53.596;10.166;2023-06-22T00:07:35;17.98;;;16.77;;
16171;SDS011;8192;53.596;10.166;2023-06-22T00:10:02;18.00;;;16.80;;
16171;SDS011;8192;53.596;10.166;2023-06-22T00:12:30;18.25;;;17.05;;
16171;SDS011;8192;53.596;10.166;2023-06-22T00:14:57;18.77;;;17.38;;
16171;SDS011;8192;53.596;10.166;2023-06-22T00:17:25;18.77;;;17.25;;
16171;SDS011;8192;53.596;10.166;2023-06-22T00:19:52;18.42;;;17.02;;
16171;SDS011;8192;53.596;10.166;2023-06-22T00:22:20;18.65;;;17.27;;
16171;SDS011;8192;53.596;10.166;2023-06-22T00:24:54;18.65;;;17.35;;
16171;SDS011;8192;53.596;10.166;2023-06-22T00:27:21;18.08;;;16.88;;
16171;SDS011;8192;53.596;10.166;2023-06-22T00:29:48;17.73;;;16.63;;
16171;SDS011;8192;53.596;10.166;2023-06-22T00:32:15;18.48;;;17.10;;
16171;SDS011;8192;53.596;10.166;2023-06-22T00:34:45;18.33;;;17.15;;
16171;SDS011;8192;53.596;10.166;2023-06-22T00:37:12;17.98;;;16.73;;
16171;SDS011;8192;53.596;10.166;2023-06-22T00:39:39;19.10;;;17.70;;
16171;SDS011;8192;53.596;10.166;2023-06-22T00:42:06;19.30;;;17.90;;
16171;SDS011;8192;53.596;10.166;2023-06-22T00:44:33;18.90;;;17.70;;
16171;SDS011;8192;53.596;10.166;2023-06-22T00:47:00;18.80;;;17.50;;
16171;SDS011;8192;53.596;10.166;2023-06-22T00:49:27;18.08;;;16.92;;
16171;SDS011;8192;53.596;10.166;2023-06-22T00:51:56;18.52;;;17.30;;
16171;SDS011;8192;53.596;10.166;2023-06-22T00:54:24;18.33;;;17.13;;
16171;SDS011;8192;53.596;10.166;2023-06-22T00:56:51;19.48;;;18.08;;
16171;SDS011;8192;53.596;10.166;2023-06-22T00:59:20;18.95;;;17.55;;
16171;SDS011;8192;53.596;10.166;2023-06-22T01:01:47;19.17;;;17.77;;
16171;SDS011;8192;53.596;10.166;2023-06-22T01:04:14;18.60;;;17.40;;
16171;SDS011;8192;53.596;10.166;2023-06-22T01:06:44;19.40;;;17.92;;
16171;SDS011;8192;53.596;10.166;2023-06-22T01:09:19;18.58;;;17.27;;
16171;SDS011;8192;53.596;10.166;2023-06-22T01:11:54;18.27;;;16.98;;
16171;SDS011;8192;53.596;10.166;2023-06-22T01:14:28;18.60;;;17.30;;
16171;SDS011;8192;53.596;10.166;2023-06-22T01:17:04;18.40;;;17.20;;
16171;SDS011;8192;53.596;10.166;2023-06-22T01:19:35;19.23;;;17.70;;
16171;SDS011;8192;53.596;10.166;2023-06-22T01:22:10;18.65;;;17.33;;
16171;SDS011;8192;53.596;10.166;2023-06-22T01:24:45;18.98;;;17.77;;
16171;SDS011;8192;53.596;10.166;2023-06-22T01:27:25;18.80;;;17.60;;
16171;SDS011;8192;53.596;10.166;2023-06-22T01:30:01;18.83;;;17.50;;
16171;SDS011;8192;53.596;10.166;2023-06-22T01:32:30;18.50;;;17.20;;
16171;SDS011;8192;53.596;10.166;2023-06-22T01:34:59;18.55;;;17.42;;
16171;SDS011;8192;53.596;10.166;2023-06-22T01:37:27;18.90;;;17.40;;
16171;SDS011;8192;53.596;10.166;2023-06-22T01:39:57;19.30;;;17.67;;
16171;SDS011;8192;53.596;10.166;2023-06-22T01:42:25;18.25;;;17.05;;
16171;SDS011;8192;53.596;10.166;2023-06-22T01:44:52;18.92;;;17.42;;
16171;SDS011;8192;53.596;10.166;2023-06-22T01:47:21;18.67;;;17.38;;
16171;SDS011;8192;53.596;10.166;2023-06-22T01:49:49;18.20;;;16.90;;
16171;SDS011;8192;53.596;10.166;2023-06-22T01:52:17;18.92;;;17.73;;
16171;SDS011;8192;53.596;10.166;2023-06-22T01:54:46;19.13;;;17.88;;
16171;SDS011;8192;53.596;10.166;2023-06-22T01:57:13;18.95;;;17.50;;
16171;SDS011;8192;53.596;10.166;2023-06-22T01:59:44;18.15;;;16.95;;
16171;SDS011;8192;53.596;10.166;2023-06-22T02:02:15;19.55;;;18.15;;
16171;SDS011;8192;53.596;10.166;2023-06-22T02:04:46;19.25;;;17.95;;
16171;SDS011;8192;53.596;10.166;2023-06-22T02:07:18;19.20;;;17.88;;
16171;SDS011;8192;53.596;10.166;2023-06-22T02:09:49;19.27;;;17.98;;
16171;SDS011;8192;53.596;10.166;2023-06-22T02:12:21;19.33;;;18.02;;
16171;SDS011;8192;53.596;10.166;2023-06-22T02:14:52;19.17;;;17.88;;
16171;SDS011;8192;53.596;10.166;2023-06-22T02:17:20;19.25;;;17.85;;
16171;SDS011;8192;53.596;10.166;2023-06-22T02:19:49;19.48;;;18.05;;
16171;SDS011;8192;53.596;10.166;2023-06-22T02:22:17;18.20;;;17.00;;
16171;SDS011;8192;53.596;10.166;2023-06-22T02:24:44;18.65;;;17.45;;
16171;SDS011;8192;53.596;10.166;2023-06-22T02:27:11;19.10;;;17.55;;
16171;SDS011;8192;53.596;10.166;2023-06-22T02:29:38;19.80;;;18.40;;
16171;SDS011;8192;53.596;10.166;2023-06-22T02:32:05;20.23;;;18.83;;
16171;SDS011;8192;53.596;10.166;2023-06-22T02:34:33;19.65;;;18.25;;
16171;SDS011;8192;53.596;10.166;2023-06-22T02:37:01;19.15;;;17.85;;
16171;SDS011;8192;53.596;10.166;2023-06-22T02:39:28;19.65;;;18.15;;
16171;SDS011;8192;53.596;10.166;2023-06-22T02:41:55;19.33;;;18.02;;
16171;SDS011;8192;53.596;10.166;2023-06-22T02:44:22;18.88;;;17.60;;
16171;SDS011;8192;53.596;10.166;2023-06-22T02:46:49;19.65;;;18.30;;
16171;SDS011;8192;53.596;10.166;2023-06-22T02:49:17;20.05;;;18.30;;
16171;SDS011;8192;53.596;10.166;2023-06-22T02:51:45;19.77;;;18.27;;
16171;SDS011;8192;53.596;10.166;2023-06-22T02:54:14;19.48;;;18.08;;
16171;SDS011;8192;53.596;10.166;2023-06-22T02:56:42;19.70;;;18.30;;
16171;SDS011;8192;53.596;10.166;2023-06-22T02:59:10;20.13;;;18.60;;
16171;SDS011;8192;53.596;10.166;2023-06-22T03:01:37;20.13;;;18.63;;
16171;SDS011;8192;53.596;10.166;2023-06-22T03:04:06;19.88;;;18.38;;
16171;SDS011;8192;53.596;10.166;2023-06-22T03:06:34;19.77;;;18.35;;
16171;SDS011;8192;53.596;10.166;2023-06-22T03:09:01;20.27;;;18.98;;
16171;SDS011;8192;53.596;10.166;2023-06-22T03:11:31;19.55;;;18.15;;
16171;SDS011;8192;53.596;10.166;2023-06-22T03:13:59;19.95;;;18.55;;
16171;SDS011;8192;53.596;10.166;2023-06-22T03:16:27;20.73;;;18.98;;
16171;SDS011;8192;53.596;10.166;2023-06-22T03:18:54;21.60;;;19.70;;
16171;SDS011;8192;53.596;10.166;2023-06-22T03:21:21;19.52;;;18.23;;
16171;SDS011;8192;53.596;10.166;2023-06-22T03:23:50;21.30;;;19.55;;
16171;SDS011;8192;53.596;10.166;2023-06-22T03:26:17;20.83;;;19.40;;
16171;SDS011;8192;53.596;10.166;2023-06-22T03:28:46;20.67;;;19.15;;
16171;SDS011;8192;53.596;10.166;2023-06-22T03:31:13;21.83;;;20.30;;
16171;SDS011;8192;53.596;10.166;2023-06-22T03:33:40;21.27;;;19.45;;
16171;SDS011;8192;53.596;10.166;2023-06-22T03:36:07;20.33;;;18.90;;
16171;SDS011;8192;53.596;10.166;2023-06-22T03:38:34;21.30;;;19.77;;
16171;SDS011;8192;53.596;10.166;2023-06-22T03:41:02;21.20;;;19.67;;
16171;SDS011;8192;53.596;10.166;2023-06-22T03:43:28;21.15;;;19.75;;
16171;SDS011;8192;53.596;10.166;2023-06-22T03:45:57;20.60;;;19.10;;
16171;SDS011;8192;53.596;10.166;2023-06-22T03:48:26;21.15;;;19.70;;
16171;SDS011;8192;53.596;10.166;2023-06-22T03:50:53;20.75;;;19.25;;
16171;SDS011;8192;53.596;10.166;2023-06-22T03:53:20;21.50;;;20.00;;
16171;SDS011;8192;53.596;10.166;2023-06-22T03:55:48;21.83;;;20.30;;
16171;SDS011;8192;53.596;10.166;2023-06-22T03:58:15;20.40;;;19.10;;
16171;SDS011;8192;53.596;10.166;2023-06-22T04:00:44;20.90;;;19.55;;
16171;SDS011;8192;53.596;10.166;2023-06-22T04:03:12;20.90;;;19.45;;
16171;SDS011;8192;53.596;10.166;2023-06-22T04:05:40;21.75;;;20.20;;
16171;SDS011;8192;53.596;10.166;2023-06-22T04:08:07;21.30;;;19.73;;
16171;SDS011;8192;53.596;10.166;2023-06-22T04:10:34;20.35;;;18.92;;
16171;SDS011;8192;53.596;10.166;2023-06-22T04:13:01;20.95;;;19.55;;
16171;SDS011;8192;53.596;10.166;2023-06-22T04:15:28;21.20;;;19.60;;
16171;SDS011;8192;53.596;10.166;2023-06-22T04:17:55;20.70;;;19.35;;
16171;SDS011;8192;53.596;10.166;2023-06-22T04:20:24;21.02;;;19.55;;
16171;SDS011;8192;53.596;10.166;2023-06-22T04:22:52;20.30;;;18.73;;
16171;SDS011;8192;53.596;10.166;2023-06-22T04:25:20;21.02;;;19.48;;
16171;SDS011;8192;53.596;10.166;2023-06-22T04:27:48;20.77;;;19.30;;
16171;SDS011;8192;53.596;10.166;2023-06-22T04:30:16;20.80;;;19.40;;
16171;SDS011;8192;53.596;10.166;2023-06-22T04:32:43;21.27;;;19.65;;
16171;SDS011;8192;53.596;10.166;2023-06-22T04:35:10;21.50;;;19.80;;
16171;SDS011;8192;53.596;10.166;2023-06-22T04:37:42;21.70;;;20.20;;
16171;SDS011;8192;53.596;10.166;2023-06-22T04:40:11;21.08;;;19.60;;
16171;SDS011;8192;53.596;10.166;2023-06-22T04:42:39;20.58;;;19.13;;
16171;SDS011;8192;53.596;10.166;2023-06-22T04:45:17;22.20;;;20.38;;
16171;SDS011;8192;53.596;10.166;2023-06-22T04:47:44;21.45;;;19.73;;
16171;SDS011;8192;53.596;10.166;2023-06-22T04:50:11;21.08;;;19.42;;
16171;SDS011;8192;53.596;10.166;2023-06-22T04:52:38;21.42;;;19.55;;
16171;SDS011;8192;53.596;10.166;2023-06-22T04:55:07;21.02;;;19.52;;
16171;SDS011;8192;53.596;10.166;2023-06-22T04:57:35;22.10;;;20.50;;
16171;SDS011;8192;53.596;10.166;2023-06-22T05:00:05;22.13;;;20.17;;
16171;SDS011;8192;53.596;10.166;2023-06-22T05:02:39;23.08;;;21.13;;
16171;SDS011;8192;53.596;10.166;2023-06-22T05:05:07;22.83;;;21.02;;
16171;SDS011;8192;53.596;10.166;2023-06-22T05:07:38;21.20;;;19.65;;
16171;SDS011;8192;53.596;10.166;2023-06-22T05:10:09;22.48;;;20.65;;
16171;SDS011;8192;53.596;10.166;2023-06-22T05:12:37;21.98;;;20.27;;
16171;SDS011;8192;53.596;10.166;2023-06-22T05:15:05;21.23;;;19.63;;
16171;SDS011;8192;53.596;10.166;2023-06-22T05:17:33;22.08;;;19.92;;
16171;SDS011;8192;53.596;10.166;2023-06-22T05:20:00;22.25;;;20.33;;
16171;SDS011;8192;53.596;10.166;2023-06-22T05:22:31;25.55;;;21.30;;
16171;SDS011;8192;53.596;10.166;2023-06-22T05:24:58;22.45;;;20.40;;
16171;SDS011;8192;53.596;10.166;2023-06-22T05:27:26;21.88;;;20.08;;
16171;SDS011;8192;53.596;10.166;2023-06-22T05:29:53;21.77;;;19.15;;
16171;SDS011;8192;53.596;10.166;2023-06-22T05:32:20;21.30;;;19.52;;
16171;SDS011;8192;53.596;10.166;2023-06-22T05:34:47;21.90;;;20.23;;
16171;SDS011;8192;53.596;10.166;2023-06-22T05:37:14;21.73;;;20.10;;
16171;SDS011;8192;53.596;10.166;2023-06-22T05:39:41;21.02;;;19.42;;
16171;SDS011;8192;53.596;10.166;2023-06-22T05:42:08;20.60;;;18.98;;
16171;SDS011;8192;53.596;10.166;2023-06-22T05:44:36;21.13;;;19.42;;
16171;SDS011;8192;53.596;10.166;2023-06-22T05:47:05;21.40;;;19.85;;
16171;SDS011;8192;53.596;10.166;2023-06-22T05:49:32;20.52;;;19.15;;
16171;SDS011;8192;53.596;10.166;2023-06-22T05:51:59;19.92;;;18.63;;
16171;SDS011;8192;53.596;10.166;2023-06-22T05:54:27;20.40;;;18.85;;
16171;SDS011;8192;53.596;10.166;2023-06-22T05:56:54;20.23;;;18.83;;
16171;SDS011;8192;53.596;10.166;2023-06-22T05:59:21;18.98;;;17.60;;
16171;SDS011;8192;53.596;10.166;2023-06-22T06:01:50;19.30;;;17.88;;
16171;SDS011;8192;53.596;10.166;2023-06-22T06:04:17;19.80;;;18.30;;
16171;SDS011;8192;53.596;10.166;2023-06-22T06:06:45;19.42;;;17.88;;
16171;SDS011;8192;53.596;10.166;2023-06-22T06:09:12;18.88;;;17.65;;
16171;SDS011;8192;53.596;10.166;2023-06-22T06:11:39;19.35;;;17.95;;
16171;SDS011;8192;53.596;10.166;2023-06-22T06:14:07;19.13;;;17.92;;
16171;SDS011;8192;53.596;10.166;2023-06-22T06:16:34;19.40;;;17.95;;
16171;SDS011;8192;53.596;10.166;2023-06-22T06:19:02;18.67;;;17.48;;
16171;SDS011;8192;53.596;10.166;2023-06-22T06:21:29;18.98;;;17.67;;
16171;SDS011;8192;53.596;10.166;2023-06-22T06:23:56;18.25;;;17.15;;
16171;SDS011;8192;53.596;10.166;2023-06-22T06:26:23;18.73;;;17.52;;
16171;SDS011;8192;53.596;10.166;2023-06-22T06:28:55;18.40;;;17.10;;
16171;SDS011;8192;53.596;10.166;2023-06-22T06:31:22;18.70;;;17.20;;
16171;SDS011;8192;53.596;10.166;2023-06-22T06:33:49;18.98;;;17.50;;
16171;SDS011;8192;53.596;10.166;2023-06-22T06:36:18;18.70;;;17.50;;
16171;SDS011;8192;53.596;10.166;2023-06-22T06:38:45;19.42;;;18.02;;
16171;SDS011;8192;53.596;10.166;2023-06-22T06:41:13;18.33;;;17.02;;
16171;SDS011;8192;53.596;10.166;2023-06-22T06:43:40;18.95;;;17.77;;
16171;SDS011;8192;53.596;10.166;2023-06-22T06:46:08;19.10;;;17.83;;
16171;SDS011;8192;53.596;10.166;2023-06-22T06:48:38;19.45;;;18.25;;
16171;SDS011;8192;53.596;10.166;2023-06-22T06:51:05;19.27;;;17.95;;
16171;SDS011;8192;53.596;10.166;2023-06-22T06:53:35;20.08;;;18.50;;
16171;SDS011;8192;53.596;10.166;2023-06-22T06:56:04;20.17;;;18.25;;
16171;SDS011;8192;53.596;10.166;2023-06-22T06:58:31;20.30;;;18.77;;
16171;SDS011;8192;53.596;10.166;2023-06-22T07:00:59;19.80;;;18.40;;
16171;SDS011;8192;53.596;10.166;2023-06-22T07:03:26;19.40;;;18.10;;
16171;SDS011;8192;53.596;10.166;2023-06-22T07:05:53;18.75;;;17.42;;
16171;SDS011;8192;53.596;10.166;2023-06-22T07:08:19;19.63;;;18.10;;
16171;SDS011;8192;53.596;10.166;2023-06-22T07:10:48;18.70;;;17.58;;
16171;SDS011;8192;53.596;10.166;2023-06-22T07:13:15;18.90;;;17.70;;
16171;SDS011;8192;53.596;10.166;2023-06-22T07:15:43;18.70;;;17.48;;
16171;SDS011;8192;53.596;10.166;2023-06-22T07:18:10;19.00;;;17.70;;
16171;SDS011;8192;53.596;10.166;2023-06-22T07:20:37;19.70;;;18.27;;
16171;SDS011;8192;53.596;10.166;2023-06-22T07:23:06;19.63;;;18.13;;
16171;SDS011;8192;53.596;10.166;2023-06-22T07:25:33;18.92;;;17.50;;
16171;SDS011;8192;53.596;10.166;2023-06-22T07:28:02;18.90;;;17.70;;
16171;SDS011;8192;53.596;10.166;2023-06-22T07:30:30;19.25;;;17.85;;
16171;SDS011;8192;53.596;10.166;2023-06-22T07:32:58;19.30;;;18.00;;
16171;SDS011;8192;53.596;10.166;2023-06-22T07:35:29;19.77;;;18.48;;
16171;SDS011;8192;53.596;10.166;2023-06-22T07:37:56;20.20;;;18.85;;
16171;SDS011;8192;53.596;10.166;2023-06-22T07:40:23;20.27;;;18.70;;
16171;SDS011;8192;53.596;10.166;2023-06-22T07:42:50;19.48;;;18.17;;
16171;SDS011;8192;53.596;10.166;2023-06-22T07:45:20;19.27;;;18.08;;
16171;SDS011;8192;53.596;10.166;2023-06-22T07:47:47;19.05;;;17.75;;
16171;SDS011;8192;53.596;10.166;2023-06-22T07:50:15;19.08;;;17.77;;
16171;SDS011;8192;53.596;10.166;2023-06-22T07:52:41;19.45;;;18.13;;
16171;SDS011;8192;53.596;10.166;2023-06-22T07:55:08;19.38;;;18.08;;
16171;SDS011;8192;53.596;10.166;2023-06-22T07:57:35;18.02;;;16.77;;
16171;SDS011;8192;53.596;10.166;2023-06-22T08:00:04;17.73;;;16.48;;
16171;SDS011;8192;53.596;10.166;2023-06-22T08:02:39;17.63;;;16.52;;
16171;SDS011;8192;53.596;10.166;2023-06-22T08:05:07;17.92;;;16.83;;
16171;SDS011;8192;53.596;10.166;2023-06-22T08:07:34;17.77;;;16.67;;
16171;SDS011;8192;53.596;10.166;2023-06-22T08:10:02;17.90;;;16.80;;
16171;SDS011;8192;53.596;10.166;2023-06-22T08:12:30;18.33;;;17.00;;
16171;SDS011;8192;53.596;10.166;2023-06-22T08:14:57;18.10;;;17.10;;
16171;SDS011;8192;53.596;10.166;2023-06-22T08:17:24;17.85;;;16.60;;
16171;SDS011;8192;53.596;10.166;2023-06-22T08:19:52;17.98;;;16.63;;
16171;SDS011;8192;53.596;10.166;2023-06-22T08:22:19;17.23;;;16.13;;
16171;SDS011;8192;53.596;10.166;2023-06-22T08:24:47;17.55;;;16.35;;
16171;SDS011;8192;53.596;10.166;2023-06-22T08:27:14;17.25;;;16.25;;
16171;SDS011;8192;53.596;10.166;2023-06-22T08:29:43;17.52;;;16.48;;
16171;SDS011;8192;53.596;10.166;2023-06-22T08:32:10;16.90;;;15.80;;
16171;SDS011;8192;53.596;10.166;2023-06-22T08:34:38;17.52;;;16.30;;
16171;SDS011;8192;53.596;10.166;2023-06-22T08:37:08;17.13;;;16.13;;
16171;SDS011;8192;53.596;10.166;2023-06-22T08:39:35;17.02;;;15.93;;
16171;SDS011;8192;53.596;10.166;2023-06-22T08:42:04;17.30;;;16.30;;
16171;SDS011;8192;53.596;10.166;2023-06-22T08:44:32;16.27;;;15.38;;
16171;SDS011;8192;53.596;10.166;2023-06-22T08:46:59;18.95;;;17.85;;
16171;SDS011;8192;53.596;10.166;2023-06-22T08:49:27;22.92;;;21.52;;
16171;SDS011;8192;53.596;10.166;2023-06-22T08:51:54;21.75;;;20.45;;
16171;SDS011;8192;53.596;10.166;2023-06-22T08:54:28;31.25;;;29.25;;
16171;SDS011;8192;53.596;10.166;2023-06-22T08:56:59;17.50;;;16.60;;
16171;SDS011;8192;53.596;10.166;2023-06-22T08:59:26;17.17;;;16.08;;
16171;SDS011;8192;53.596;10.166;2023-06-22T09:01:53;16.55;;;15.48;;
16171;SDS011;8192;53.596;10.166;2023-06-22T09:04:21;17.63;;;16.58;;
16171;SDS011;8192;53.596;10.166;2023-06-22T09:06:48;19.27;;;18.08;;
16171;SDS011;8192;53.596;10.166;2023-06-22T09:09:17;17.50;;;16.40;;
16171;SDS011;8192;53.596;10.166;2023-06-22T09:11:46;17.17;;;16.17;;
16171;SDS011;8192;53.596;10.166;2023-06-22T09:14:13;17.38;;;16.38;;
16171;SDS011;8192;53.596;10.166;2023-06-22T09:16:40;17.50;;;16.30;;
16171;SDS011;8192;53.596;10.166;2023-06-22T09:19:08;18.02;;;16.92;;
16171;SDS011;8192;53.596;10.166;2023-06-22T09:21:35;17.85;;;16.73;;
16171;SDS011;8192;53.596;10.166;2023-06-22T09:24:03;17.85;;;16.70;;
16171;SDS011;8192;53.596;10.166;2023-06-22T09:26:30;17.90;;;16.80;;
16171;SDS011;8192;53.596;10.166;2023-06-22T09:29:00;17.17;;;16.08;;
16171;SDS011;8192;53.596;10.166;2023-06-22T09:31:27;17.48;;;16.35;;
16171;SDS011;8192;53.596;10.166;2023-06-22T09:33:54;17.25;;;16.17;;
16171;SDS011;8192;53.596;10.166;2023-06-22T09:36:21;16.15;;;15.25;;
16171;SDS011;8192;53.596;10.166;2023-06-22T09:38:49;17.30;;;16.30;;
16171;SDS011;8192;53.596;10.166;2023-06-22T09:41:23;17.63;;;16.52;;
16171;SDS011;8192;53.596;10.166;2023-06-22T09:43:50;17.00;;;16.00;;
16171;SDS011;8192;53.596;10.166;2023-06-22T09:46:19;18.20;;;17.00;;
16171;SDS011;8192;53.596;10.166;2023-06-22T09:48:48;17.80;;;16.52;;
16171;SDS011;8192;53.596;10.166;2023-06-22T09:51:15;17.63;;;16.52;;
16171;SDS011;8192;53.596;10.166;2023-06-22T09:53:44;17.58;;;16.23;;
16171;SDS011;8192;53.596;10.166;2023-06-22T09:56:11;17.52;;;16.35;;
16171;SDS011;8192;53.596;10.166;2023-06-22T09:58:40;18.17;;;16.98;;
16171;SDS011;8192;53.596;10.166;2023-06-22T10:01:07;18.02;;;16.92;;
16171;SDS011;8192;53.596;10.166;2023-06-22T10:03:36;17.90;;;16.83;;
16171;SDS011;8192;53.596;10.166;2023-06-22T10:06:03;18.38;;;17.25;;
16171;SDS011;8192;53.596;10.166;2023-06-22T10:08:30;18.33;;;17.17;;
16171;SDS011;8192;53.596;10.166;2023-06-22T10:10:57;18.50;;;17.42;;
16171;SDS011;8192;53.596;10.166;2023-06-22T10:13:24;18.70;;;17.48;;
16171;SDS011;8192;53.596;10.166;2023-06-22T10:15:52;17.90;;;16.75;;
16171;SDS011;8192;53.596;10.166;2023-06-22T10:18:20;18.20;;;17.10;;
16171;SDS011;8192;53.596;10.166;2023-06-22T10:20:48;18.02;;;16.75;;
16171;SDS011;8192;53.596;10.166;2023-06-22T10:23:17;17.88;;;16.67;;
16171;SDS011;8192;53.596;10.166;2023-06-22T10:25:44;18.70;;;17.60;;
16171;SDS011;8192;53.596;10.166;2023-06-22T10:28:11;17.98;;;16.88;;
16171;SDS011;8192;53.596;10.166;2023-06-22T10:30:38;18.55;;;17.25;;
16171;SDS011;8192;53.596;10.166;2023-06-22T10:33:06;18.42;;;17.23;;
16171;SDS011;8192;53.596;10.166;2023-06-22T10:35:33;18.27;;;17.08;;
16171;SDS011;8192;53.596;10.166;2023-06-22T10:38:02;18.88;;;17.58;;
16171;SDS011;8192;53.596;10.166;2023-06-22T10:40:29;19.05;;;17.60;;
16171;SDS011;8192;53.596;10.166;2023-06-22T10:42:58;17.83;;;16.83;;
16171;SDS011;8192;53.596;10.166;2023-06-22T10:45:25;18.00;;;16.80;;
16171;SDS011;8192;53.596;10.166;2023-06-22T10:47:53;18.05;;;17.05;;
16171;SDS011;8192;53.596;10.166;2023-06-22T10:50:20;17.33;;;16.13;;
16171;SDS011;8192;53.596;10.166;2023-06-22T10:52:49;18.92;;;17.45;;
16171;SDS011;8192;53.596;10.166;2023-06-22T10:55:17;17.90;;;16.80;;
16171;SDS011;8192;53.596;10.166;2023-06-22T10:57:45;18.08;;;16.98;;
16171;SDS011;8192;53.596;10.166;2023-06-22T11:00:12;18.23;;;17.13;;
16171;SDS011;8192;53.596;10.166;2023-06-22T11:02:40;18.25;;;17.10;;
16171;SDS011;8192;53.596;10.166;2023-06-22T11:05:09;18.20;;;16.92;;
16171;SDS011;8192;53.596;10.166;2023-06-22T11:07:37;18.35;;;17.20;;
16171;SDS011;8192;53.596;10.166;2023-06-22T11:10:07;18.20;;;17.10;;
16171;SDS011;8192;53.596;10.166;2023-06-22T11:12:36;18.63;;;17.42;;
16171;SDS011;8192;53.596;10.166;2023-06-22T11:15:04;18.38;;;17.20;;
16171;SDS011;8192;53.596;10.166;2023-06-22T11:17:31;18.52;;;17.20;;
16171;SDS011;8192;53.596;10.166;2023-06-22T11:19:58;17.98;;;16.98;;
16171;SDS011;8192;53.596;10.166;2023-06-22T11:22:26;18.77;;;17.60;;
16171;SDS011;8192;53.596;10.166;2023-06-22T11:24:55;18.15;;;16.92;;
16171;SDS011;8192;53.596;10.166;2023-06-22T11:27:22;18.08;;;17.00;;
16171;SDS011;8192;53.596;10.166;2023-06-22T11:29:51;17.40;;;16.30;;
16171;SDS011;8192;53.596;10.166;2023-06-22T11:32:18;17.63;;;16.52;;
16171;SDS011;8192;53.596;10.166;2023-06-22T11:34:45;18.73;;;17.52;;
16171;SDS011;8192;53.596;10.166;2023-06-22T11:37:12;18.05;;;16.88;;
16171;SDS011;8192;53.596;10.166;2023-06-22T11:39:40;17.95;;;16.85;;
16171;SDS011;8192;53.596;10.166;2023-06-22T11:42:07;17.00;;;15.90;;
16171;SDS011;8192;53.596;10.166;2023-06-22T11:44:34;18.17;;;17.10;;
16171;SDS011;8192;53.596;10.166;2023-06-22T11:47:03;17.77;;;16.67;;
16171;SDS011;8192;53.596;10.166;2023-06-22T11:49:30;18.42;;;17.20;;
16171;SDS011;8192;53.596;10.166;2023-06-22T11:51:57;18.02;;;16.98;;
16171;SDS011;8192;53.596;10.166;2023-06-22T11:54:24;18.55;;;17.15;;
16171;SDS011;8192;53.596;10.166;2023-06-22T11:56:51;19.15;;;17.90;;
16171;SDS011;8192;53.596;10.166;2023-06-22T11:59:18;18.67;;;17.48;;
16171;SDS011;8192;53.596;10.166;2023-06-22T12:01:47;18.83;;;17.73;;
16171;SDS011;8192;53.596;10.166;2023-06-22T12:04:17;18.65;;;17.45;;
16171;SDS011;8192;53.596;10.166;2023-06-22T12:06:45;19.13;;;17.92;;
16171;SDS011;8192;53.596;10.166;2023-06-22T12:09:12;20.10;;;18.77;;
16171;SDS011;8192;53.596;10.166;2023-06-22T12:11:40;19.08;;;17.95;;
16171;SDS011;8192;53.596;10.166;2023-06-22T12:14:07;18.88;;;17.67;;
16171;SDS011;8192;53.596;10.166;2023-06-22T12:16:34;19.17;;;17.98;;
16171;SDS011;8192;53.596;10.166;2023-06-22T12:19:01;19.23;;;18.05;;
16171;SDS011;8192;53.596;10.166;2023-06-22T12:21:30;18.88;;;17.80;;
16171;SDS011;8192;53.596;10.166;2023-06-22T12:23:57;20.20;;;18.90;;
16171;SDS011;8192;53.596;10.166;2023-06-22T12:26:24;20.70;;;19.50;;
16171;SDS011;8192;53.596;10.166;2023-06-22T12:28:51;23.05;;;21.75;;
16171;SDS011;8192;53.596;10.166;2023-06-22T12:31:17;19.42;;;18.15;;
16171;SDS011;8192;53.596;10.166;2023-06-22T12:33:46;18.15;;;17.02;;
16171;SDS011;8192;53.596;10.166;2023-06-22T12:36:13;19.00;;;17.70;;
16171;SDS011;8192;53.596;10.166;2023-06-22T12:38:42;17.70;;;16.60;;
16171;SDS011;8192;53.596;10.166;2023-06-22T12:41:09;18.60;;;17.40;;
16171;SDS011;8192;53.596;10.166;2023-06-22T12:43:36;18.83;;;17.73;;
16171;SDS011;8192;53.596;10.166;2023-06-22T12:46:03;18.77;;;17.77;;
16171;SDS011;8192;53.596;10.166;2023-06-22T12:48:30;18.60;;;17.50;;
16171;SDS011;8192;53.596;10.166;2023-06-22T12:50:57;19.80;;;18.42;;
16171;SDS011;8192;53.596;10.166;2023-06-22T12:53:25;18.55;;;17.30;;
16171;SDS011;8192;53.596;10.166;2023-06-22T12:55:53;19.45;;;18.15;;
16171;SDS011;8192;53.596;10.166;2023-06-22T12:58:21;18.90;;;17.80;;
16171;SDS011;8192;53.596;10.166;2023-06-22T13:00:48;18.70;;;17.40;;
16171;SDS011;8192;53.596;10.166;2023-06-22T13:03:15;18.70;;;17.45;;
16171;SDS011;8192;53.596;10.166;2023-06-22T13:05:42;18.33;;;17.02;;
16171;SDS011;8192;53.596;10.166;2023-06-22T13:08:10;18.17;;;17.08;;
16171;SDS011;8192;53.596;10.166;2023-06-22T13:10:38;18.35;;;17.10;;
16171;SDS011;8192;53.596;10.166;2023-06-22T13:13:07;18.27;;;17.15;;
16171;SDS011;8192;53.596;10.166;2023-06-22T13:15:34;19.10;;;18.05;;
16171;SDS011;8192;53.596;10.166;2023-06-22T13:18:01;18.73;;;17.23;;
16171;SDS011;8192;53.596;10.166;2023-06-22T13:20:28;18.60;;;17.35;;
16171;SDS011;8192;53.596;10.166;2023-06-22T13:22:55;18.63;;;17.52;;
16171;SDS011;8192;53.596;10.166;2023-06-22T13:25:22;18.73;;;17.58;;
16171;SDS011;8192;53.596;10.166;2023-06-22T13:27:51;18.13;;;16.95;;
16171;SDS011;8192;53.596;10.166;2023-06-22T13:30:20;18.13;;;16.92;;
16171;SDS011;8192;53.596;10.166;2023-06-22T13:32:47;19.25;;;17.98;;
16171;SDS011;8192;53.596;10.166;2023-06-22T13:35:14;19.27;;;17.98;;
16171;SDS011;8192;53.596;10.166;2023-06-22T13:37:41;18.60;;;17.42;;
16171;SDS011;8192;53.596;10.166;2023-06-22T13:40:08;18.67;;;17.23;;
16171;SDS011;8192;53.596;10.166;2023-06-22T13:42:36;18.40;;;17.15;;
16171;SDS011;8192;53.596;10.166;2023-06-22T13:45:03;18.60;;;17.40;;
16171;SDS011;8192;53.596;10.166;2023-06-22T13:47:32;18.20;;;17.00;;
16171;SDS011;8192;53.596;10.166;2023-06-22T13:50:00;17.85;;;16.75;;
16171;SDS011;8192;53.596;10.166;2023-06-22T13:52:27;18.30;;;17.15;;
16171;SDS011;8192;53.596;10.166;2023-06-22T13:54:55;18.73;;;17.38;;
16171;SDS011;8192;53.596;10.166;2023-06-22T13:57:22;18.55;;;17.23;;
16171;SDS011;8192;53.596;10.166;2023-06-22T13:59:49;18.67;;;17.30;;
16171;SDS011;8192;53.596;10.166;2023-06-22T14:02:16;17.98;;;16.88;;
16171;SDS011;8192;53.596;10.166;2023-06-22T14:04:45;18.75;;;17.48;;
16171;SDS011;8192;53.596;10.166;2023-06-22T14:07:12;18.67;;;17.38;;
16171;SDS011;8192;53.596;10.166;2023-06-22T14:09:39;19.35;;;17.50;;
16171;SDS011;8192;53.596;10.166;2023-06-22T14:12:07;18.95;;;17.63;;
16171;SDS011;8192;53.596;10.166;2023-06-22T14:14:34;18.83;;;17.58;;
16171;SDS011;8192;53.596;10.166;2023-06-22T14:17:01;18.50;;;17.10;;
16171;SDS011;8192;53.596;10.166;2023-06-22T14:19:29;17.98;;;16.85;;
16171;SDS011;8192;53.596;10.166;2023-06-22T14:21:58;18.60;;;17.30;;
16171;SDS011;8192;53.596;10.166;2023-06-22T14:24:25;18.70;;;17.40;;